Time;durP1;ratioP1;P1;durP2;ratioP2;P2;SDS_P1;SDS_P2;PMS_P1;PMS_P2;Temp;Humidity;BMP_temperature;BMP_pressure;BME280_temperature;BME280_humidity;BME280_pressure;Samples;Min_cycle;Max_cycle;Signal;HPM_P1;HPM_P2
2022/05/23 00:02:18;;;;;;;4.45;1.83;;;15.40;99.90;;;;;;5037170;28;20037;-83
2022/05/23 00:04:45;;;;;;;5.05;1.90;;;15.30;99.90;;;;;;5053791;28;20032;-83
2022/05/23 00:07:32;;;;;;;4.13;2.00;;;15.30;99.90;;;;;;5037358;28;20044;-83
2022/05/23 00:09:59;;;;;;;5.47;1.98;;;15.30;99.90;;;;;;5052590;28;20074;-84
2022/05/23 00:12:25;;;;;;;3.35;1.55;;;15.30;99.90;;;;;;5036988;28;20037;-83
2022/05/23 00:14:52;;;;;;;4.82;2.35;;;15.30;99.90;;;;;;5037336;28;20071;-83
2022/05/23 00:17:18;;;;;;;;;;;15.20;99.90;;;;;;5054345;28;20527;-83
2022/05/23 00:19:44;;;;;;;4.00;1.92;;;15.20;99.90;;;;;;5052346;28;19917;-83
2022/05/23 00:22:10;;;;;;;4.63;2.20;;;15.10;99.90;;;;;;5020752;28;20052;-83
2022/05/23 00:24:36;;;;;;;;;;;15.10;99.90;;;;;;5037158;28;20041;-82
2022/05/23 00:27:02;;;;;;;5.57;1.95;;;15.00;99.90;;;;;;5036644;28;19921;-83
2022/05/23 00:29:28;;;;;;;4.85;1.90;;;14.90;99.90;;;;;;5036537;28;20116;-82
2022/05/23 00:37:22;;;;;;;6.85;2.00;;;14.80;99.90;;;;;;5053195;28;20101;-82
2022/05/23 00:39:48;;;;;;;4.88;2.40;;;14.80;99.90;;;;;;5036816;28;20040;-84
2022/05/23 00:45:03;;;;;;;4.05;1.90;;;14.70;99.90;;;;;;5052952;28;20037;-84
2022/05/23 00:47:29;;;;;;;3.80;1.92;;;14.60;99.90;;;;;;5036480;28;20033;-83
2022/05/23 00:49:55;;;;;;;4.85;2.33;;;14.50;99.90;;;;;;5053250;28;20036;-83
2022/05/23 00:52:27;;;;;;;4.28;2.10;;;14.40;99.90;;;;;;5052884;28;20400;-83
2022/05/23 00:54:57;;;;;;;3.88;2.47;;;14.40;99.90;;;;;;5052937;28;20043;-83
2022/05/23 00:57:30;;;;;;;4.53;2.20;;;14.40;99.90;;;;;;5052820;28;20162;-83
2022/05/23 00:59:59;;;;;;;6.25;2.17;;;14.40;99.90;;;;;;5034553;28;20044;-83
2022/05/23 01:02:25;;;;;;;10.20;2.70;;;14.30;99.90;;;;;;5035911;28;20060;-83
2022/05/23 01:04:51;;;;;;;4.65;2.60;;;14.20;99.90;;;;;;5052787;28;20095;-83
2022/05/23 01:07:17;;;;;;;;;;;14.30;99.90;;;;;;5052917;28;20036;-83
2022/05/23 01:09:43;;;;;;;4.03;2.30;;;14.20;99.90;;;;;;5052686;28;20402;-83
2022/05/23 01:12:10;;;;;;;4.03;2.63;;;14.10;99.90;;;;;;5052685;28;20066;-82
2022/05/23 01:14:58;;;;;;;3.90;2.50;;;14.00;99.90;;;;;;5052016;28;20063;-83
2022/05/23 01:17:24;;;;;;;;;;;14.00;99.90;;;;;;5052908;28;20131;-83
2022/05/23 01:19:51;;;;;;;4.20;2.80;;;14.00;99.90;;;;;;5053028;28;20358;-83
2022/05/23 01:22:38;;;;;;;4.65;2.72;;;14.00;99.90;;;;;;5035878;28;20049;-82
2022/05/23 01:25:32;;;;;;;6.72;3.00;;;13.90;99.90;;;;;;5052050;28;20042;-83
2022/05/23 01:27:58;;;;;;;5.32;2.70;;;13.90;99.90;;;;;;5048824;28;20060;-84
2022/05/23 01:30:24;;;;;;;5.43;2.92;;;13.90;99.90;;;;;;5048711;28;20033;-83
2022/05/23 01:32:50;;;;;;;4.90;2.95;;;13.80;99.90;;;;;;5048710;28;20033;-84
2022/05/23 01:35:16;;;;;;;5.53;2.72;;;13.80;99.90;;;;;;5049149;28;20481;-82
2022/05/23 01:37:42;;;;;;;5.95;3.85;;;13.80;99.90;;;;;;5048592;28;20401;-83
2022/05/23 01:40:13;;;;;;;5.63;3.20;;;13.70;99.90;;;;;;5032300;28;20039;-83
2022/05/23 01:42:39;;;;;;;8.95;3.80;;;13.70;99.90;;;;;;5031788;28;20048;-83
2022/05/23 01:45:06;;;;;;;4.97;3.55;;;13.70;99.90;;;;;;5049089;28;20037;-82
2022/05/23 01:47:31;;;;;;;8.75;3.75;;;13.60;99.90;;;;;;5031882;28;20037;-82
2022/05/23 01:49:57;;;;;;;6.63;3.83;;;13.60;99.90;;;;;;5048472;28;20039;-83
2022/05/23 01:52:23;;;;;;;6.47;3.88;;;13.60;99.90;;;;;;5048355;28;20040;-83
2022/05/23 01:54:48;;;;;;;7.10;4.10;;;13.70;99.90;;;;;;5048710;28;20399;-82
2022/05/23 01:57:14;;;;;;;5.22;3.78;;;13.70;99.90;;;;;;5032213;28;20043;-83
2022/05/23 02:02:25;;;;;;;9.02;3.90;;;13.70;99.90;;;;;;5048387;28;20508;-83
2022/05/23 02:04:54;;;;;;;6.88;4.07;;;13.70;99.90;;;;;;5048085;28;20032;-83
2022/05/23 02:07:20;;;;;;;6.07;4.03;;;13.80;99.90;;;;;;5048522;28;20037;-83
2022/05/23 02:09:46;;;;;;;8.63;3.90;;;13.80;99.90;;;;;;5047784;28;20714;-83
2022/05/23 02:12:17;;;;;;;8.13;4.30;;;13.90;99.90;;;;;;5031737;28;20067;-83
2022/05/23 02:14:43;;;;;;;7.45;4.38;;;13.80;99.90;;;;;;5047901;28;20768;-84
2022/05/23 02:17:10;;;;;;;7.95;4.10;;;13.80;99.90;;;;;;5047959;28;20132;-83
2022/05/23 02:19:36;;;;;;;8.02;4.28;;;13.80;99.90;;;;;;5047672;28;20291;-85
2022/05/23 02:22:02;;;;;;;8.02;4.18;;;13.80;99.90;;;;;;5031915;28;20032;-83
2022/05/23 02:24:28;;;;;;;;;;;13.80;99.90;;;;;;5048216;28;20032;-84
2022/05/23 02:26:54;;;;;;;7.18;4.10;;;13.90;99.90;;;;;;5047761;28;20438;-82
2022/05/23 02:29:20;;;;;;;7.47;4.53;;;13.80;99.90;;;;;;5034802;28;20431;-83
2022/05/23 02:31:48;;;;;;;10.18;4.70;;;13.80;99.90;;;;;;5034344;28;20437;-84
2022/05/23 02:34:15;;;;;;;6.50;4.60;;;13.90;99.90;;;;;;5034688;28;20040;-84
2022/05/23 02:36:40;;;;;;;;;;;13.80;99.90;;;;;;5034435;28;20047;-83
2022/05/23 02:39:06;;;;;;;8.32;5.05;;;13.80;99.90;;;;;;5051335;28;20007;-83
2022/05/23 02:41:33;;;;;;;5.18;4.38;;;13.80;99.90;;;;;;5050832;28;20552;-83
2022/05/23 02:43:59;;;;;;;7.28;4.72;;;13.80;99.90;;;;;;5050893;28;20056;-83
2022/05/23 02:46:24;;;;;;;7.50;4.65;;;13.80;99.90;;;;;;5051226;28;20051;-83
2022/05/23 02:48:50;;;;;;;5.95;4.68;;;13.80;99.90;;;;;;5033988;28;20079;-84
2022/05/23 02:51:16;;;;;;;8.75;4.72;;;13.80;99.90;;;;;;5051271;28;20024;-84
2022/05/23 02:53:41;;;;;;;8.25;4.88;;;13.80;99.90;;;;;;5051054;28;20040;-84
2022/05/23 02:56:07;;;;;;;9.63;5.00;;;13.80;99.90;;;;;;5051403;28;20041;-83
2022/05/23 02:58:33;;;;;;;7.57;5.00;;;13.70;99.90;;;;;;5050636;28;20106;-83
2022/05/23 03:00:58;;;;;;;6.70;5.05;;;13.80;99.90;;;;;;5034277;28;20045;-84
2022/05/23 03:03:24;;;;;;;9.10;5.03;;;13.80;99.90;;;;;;5051479;28;20460;-83
2022/05/23 03:05:53;;;;;;;10.37;5.10;;;13.80;99.90;;;;;;5017829;28;20636;-83
2022/05/23 03:08:22;;;;;;;8.55;4.85;;;13.80;99.90;;;;;;5051274;28;20352;-83
2022/05/23 03:10:49;;;;;;;9.00;5.53;;;13.80;99.90;;;;;;5034552;28;21314;-83
2022/05/23 03:13:15;;;;;;;5.57;4.80;;;13.80;99.90;;;;;;5051223;28;20048;-84
2022/05/23 03:15:41;;;;;;;8.98;5.22;;;13.80;99.90;;;;;;5033899;28;20403;-83
2022/05/23 03:18:07;;;;;;;8.07;5.57;;;13.80;99.90;;;;;;5034401;28;20088;-83
2022/05/23 03:20:33;;;;;;;9.45;5.28;;;13.70;99.90;;;;;;5050713;28;20107;-82
2022/05/23 03:28:34;;;;;;;7.20;5.82;;;13.60;99.90;;;;;;5048150;28;20581;-83
2022/05/23 03:31:00;;;;;;;6.47;5.50;;;13.60;99.90;;;;;;5051339;28;20590;-83
2022/05/23 03:33:27;;;;;;;9.77;5.55;;;13.60;99.90;;;;;;5034847;28;20048;-83
2022/05/23 03:35:52;;;;;;;8.82;6.22;;;13.60;99.90;;;;;;5050391;28;20036;-83
2022/05/23 03:38:18;;;;;;;7.82;5.80;;;13.60;99.90;;;;;;5050818;28;20511;-83
2022/05/23 03:40:44;;;;;;;8.75;5.63;;;13.50;99.90;;;;;;5050382;28;20183;-83
2022/05/23 03:43:10;;;;;;;9.07;5.70;;;13.50;99.90;;;;;;5034261;28;20504;-83
2022/05/23 03:45:37;;;;;;;7.97;5.72;;;13.50;99.90;;;;;;5034096;28;20078;-83
2022/05/23 03:48:03;;;;;;;6.10;5.47;;;13.60;99.90;;;;;;5033910;28;20461;-83
2022/05/23 03:50:31;;;;;;;11.77;5.50;;;13.60;99.90;;;;;;5050926;28;20119;-83
2022/05/23 03:52:57;;;;;;;7.63;5.25;;;13.50;99.90;;;;;;5050977;28;20055;-83
2022/05/23 03:55:24;;;;;;;7.03;5.80;;;13.60;99.90;;;;;;5053387;28;20119;-83
2022/05/23 03:57:49;;;;;;;7.22;5.50;;;13.60;99.90;;;;;;5053700;28;20041;-83
2022/05/23 04:00:17;;;;;;;10.20;5.30;;;13.60;99.90;;;;;;5054384;28;20515;-83
2022/05/23 04:02:43;;;;;;;7.40;5.50;;;13.60;99.90;;;;;;5053937;28;20082;-83
2022/05/23 04:05:12;;;;;;;7.38;5.20;;;13.60;99.90;;;;;;5037849;28;20028;-83
2022/05/23 04:07:38;;;;;;;7.90;5.32;;;13.60;99.90;;;;;;5053993;28;20396;-84
2022/05/23 04:10:11;;;;;;;6.82;4.90;;;13.60;99.90;;;;;;5037175;28;20044;-83
2022/05/23 04:12:37;;;;;;;7.85;4.93;;;13.60;99.90;;;;;;5037325;28;20554;-83
2022/05/23 04:15:04;;;;;;;6.85;5.00;;;13.60;99.90;;;;;;5054270;28;20045;-82
2022/05/23 04:17:30;;;;;;;6.47;4.95;;;13.50;99.90;;;;;;5051858;28;20123;-82
2022/05/23 04:19:56;;;;;;;8.98;4.65;;;13.50;99.90;;;;;;5053325;28;20036;-83
2022/05/23 04:22:22;;;;;;;8.25;4.40;;;13.50;99.90;;;;;;5037546;28;20512;-84
2022/05/23 04:24:48;;;;;;;6.68;4.90;;;13.50;99.90;;;;;;5053871;28;20033;-83
2022/05/23 04:27:14;;;;;;;8.20;5.05;;;13.50;99.90;;;;;;5037274;28;20064;-81
2022/05/23 04:29:39;;;;;;;5.97;4.93;;;13.50;99.90;;;;;;5038030;28;20028;-82
2022/05/23 04:35:12;;;;;;;8.50;4.47;;;13.50;99.90;;;;;;5038698;28;20062;-83
2022/05/23 04:37:35;;;;;;;9.02;4.80;;;13.50;99.90;;;;;;5053316;28;20067;-82
2022/05/23 04:40:01;;;;;;;6.72;4.82;;;13.50;99.90;;;;;;5054058;28;20036;-85
2022/05/23 04:42:26;;;;;;;7.40;4.63;;;13.50;99.90;;;;;;5053795;28;20401;-82
2022/05/23 04:44:52;;;;;;;6.70;4.20;;;13.50;99.90;;;;;;5053641;28;20396;-84
2022/05/23 04:50:03;;;;;;;5.88;4.25;;;13.60;99.90;;;;;;5053641;28;20434;-87
2022/05/23 04:52:29;;;;;;;6.28;4.53;;;13.60;99.90;;;;;;5037486;28;20041;-84
2022/05/23 04:54:55;;;;;;;6.10;4.10;;;13.70;99.90;;;;;;5020867;28;20051;-85
2022/05/23 04:57:21;;;;;;;6.07;4.13;;;13.70;99.90;;;;;;5054059;28;20045;-84
2022/05/23 04:59:47;;;;;;;8.57;4.78;;;13.80;99.90;;;;;;5036918;28;20044;-84
2022/05/23 05:02:13;;;;;;;8.07;4.35;;;13.80;99.90;;;;;;5053780;28;20037;-85
2022/05/23 05:04:39;;;;;;;6.80;4.55;;;13.80;99.90;;;;;;5053340;28;20036;-84
2022/05/23 05:07:05;;;;;;;8.10;4.20;;;13.90;99.90;;;;;;5036664;28;20127;-84
2022/05/23 05:09:31;;;;;;;7.63;4.65;;;13.90;99.90;;;;;;5054199;28;20119;-84
2022/05/23 05:11:57;;;;;;;5.07;3.88;;;14.00;99.90;;;;;;5037220;28;20127;-83
2022/05/23 05:14:22;;;;;;;6.13;4.18;;;14.10;99.90;;;;;;5053628;28;20036;-85
2022/05/23 05:16:49;;;;;;;8.27;4.60;;;14.20;99.90;;;;;;5052945;28;20041;-85
2022/05/23 05:19:15;;;;;;;6.82;4.18;;;14.20;99.90;;;;;;5053547;28;20078;-84
2022/05/23 05:21:40;;;;;;;8.20;4.32;;;14.30;99.90;;;;;;5036323;28;20048;-84
2022/05/23 05:24:06;;;;;;;8.48;4.70;;;14.40;99.90;;;;;;5053525;28;20044;-84
2022/05/23 05:26:32;;;;;;;7.18;4.07;;;14.50;99.90;;;;;;5020796;28;20476;-84
2022/05/23 05:28:58;;;;;;;7.40;4.53;;;14.50;99.90;;;;;;5036188;28;20603;-84
2022/05/23 05:31:27;;;;;;;7.50;4.70;;;14.60;99.90;;;;;;5036932;28;20123;-84
2022/05/23 05:33:59;;;;;;;9.07;4.93;;;14.70;99.90;;;;;;5052599;28;20032;-85
2022/05/23 05:36:31;;;;;;;11.18;4.70;;;14.70;99.90;;;;;;5036998;28;20598;-85
2022/05/23 05:39:04;;;;;;;6.70;4.63;;;14.80;99.90;;;;;;5052869;28;20469;-85
2022/05/23 05:41:45;;;;;;;8.10;4.95;;;14.70;99.90;;;;;;5053063;28;20138;-85
2022/05/23 05:44:17;;;;;;;6.43;5.07;;;14.70;99.90;;;;;;5053057;28;20037;-85
2022/05/23 05:46:47;;;;;;;8.20;4.78;;;14.80;99.90;;;;;;5052569;28;20044;-85
2022/05/23 05:49:18;;;;;;;10.15;5.20;;;14.80;99.90;;;;;;5053240;28;20036;-86
2022/05/23 05:51:45;;;;;;;7.00;4.68;;;14.90;99.90;;;;;;5035795;28;20499;-84
2022/05/23 05:54:21;;;;;;;10.25;4.88;;;14.90;99.90;;;;;;5036520;28;20495;-84
2022/05/23 05:56:47;;;;;;;7.00;4.78;;;15.10;99.90;;;;;;5052412;28;20040;-85
2022/05/23 05:59:14;;;;;;;6.57;4.70;;;15.20;99.90;;;;;;5052934;28;20038;-85
2022/05/23 06:01:40;;;;;;;9.15;4.32;;;15.50;99.90;;;;;;5035538;28;20082;-85
2022/05/23 06:04:06;;;;;;;10.05;4.60;;;15.80;99.90;;;;;;5036021;28;20032;-85
2022/05/23 06:12:00;;;;;;;8.73;4.70;;;17.00;99.90;;;;;;5051999;28;20048;-85
2022/05/23 06:14:26;;;;;;;11.85;4.57;;;17.20;99.90;;;;;;5052513;28;20039;-85
2022/05/23 06:16:52;;;;;;;5.18;3.83;;;17.20;99.90;;;;;;5019051;28;20476;-85
2022/05/23 06:19:19;;;;;;;7.93;4.15;;;17.10;99.90;;;;;;5051853;28;20036;-85
2022/05/23 06:21:45;;;;;;;6.88;4.22;;;17.10;99.90;;;;;;5052034;28;20044;-85
2022/05/23 06:24:12;;;;;;;7.97;4.60;;;17.10;99.90;;;;;;5036061;28;20043;-85
2022/05/23 06:26:37;;;;;;;;;;;17.20;99.90;;;;;;5036265;28;20068;-86
2022/05/23 06:29:03;;;;;;;6.38;4.30;;;17.20;99.90;;;;;;5051931;28;20364;-84
2022/05/23 06:31:29;;;;;;;10.57;4.35;;;17.40;99.90;;;;;;5035683;28;20045;-84
2022/05/23 06:33:55;;;;;;;6.38;3.95;;;17.70;99.90;;;;;;5051589;28;20040;-84
2022/05/23 06:36:21;;;;;;;4.72;3.75;;;17.90;99.90;;;;;;5035564;28;20040;-84
2022/05/23 06:38:48;;;;;;;9.48;3.70;;;18.20;99.90;;;;;;5051845;28;20040;-84
2022/05/23 06:41:14;;;;;;;5.28;3.65;;;18.30;99.90;;;;;;5052470;28;20477;-85
2022/05/23 06:43:42;;;;;;;8.00;4.30;;;18.40;99.90;;;;;;5035458;28;20055;-85
2022/05/23 06:46:09;;;;;;;6.25;4.18;;;18.30;99.90;;;;;;5052160;28;20032;-84
2022/05/23 06:48:36;;;;;;;6.25;4.05;;;18.10;99.90;;;;;;5019257;28;20520;-84
2022/05/23 06:51:03;;;;;;;7.47;4.25;;;17.80;99.90;;;;;;5051848;28;20030;-84
2022/05/23 06:53:29;;;;;;;7.60;4.28;;;17.70;99.90;;;;;;5052101;28;20040;-84
2022/05/23 06:55:55;;;;;;;7.20;3.85;;;17.70;99.90;;;;;;5035094;28;20502;-84
2022/05/23 06:58:22;;;;;;;7.75;4.85;;;17.80;99.90;;;;;;5051972;28;20032;-84
2022/05/23 07:00:49;;;;;;;5.72;3.95;;;17.80;99.90;;;;;;5051878;28;20024;-85
2022/05/23 07:03:15;;;;;;;8.07;4.50;;;17.80;99.90;;;;;;5035273;28;20070;-84
2022/05/23 07:13:55;;;;;;;6.32;4.10;;;18.20;99.90;;;;;;5051718;28;20519;-84
2022/05/23 07:16:22;;;;;;;;;;;18.20;99.90;;;;;;5036218;28;20373;-84
2022/05/23 07:18:48;;;;;;;7.85;3.92;;;18.30;99.90;;;;;;5051154;28;19974;-85
2022/05/23 07:21:15;;;;;;;6.28;4.20;;;18.50;99.90;;;;;;5035478;28;20516;-85
2022/05/23 07:23:41;;;;;;;7.47;4.50;;;18.70;99.90;;;;;;5035350;28;20045;-84
2022/05/23 07:26:11;;;;;;;4.78;3.90;;;18.70;99.90;;;;;;5018162;28;20047;-84
2022/05/23 07:28:36;;;;;;;6.07;4.13;;;19.00;99.90;;;;;;5034679;28;20404;-84
2022/05/23 07:31:03;;;;;;;4.78;3.75;;;19.10;99.90;;;;;;5073245;28;20410;-85
2022/05/23 07:33:29;;;;;;;5.93;4.38;;;19.20;99.90;;;;;;5038796;28;20040;-85
2022/05/23 07:35:55;;;;;;;;;;;19.30;99.90;;;;;;5073104;28;20501;-84
2022/05/23 07:38:21;;;;;;;6.55;4.25;;;19.30;99.90;;;;;;5055149;28;19916;-84
2022/05/23 07:40:51;;;;;;;7.90;4.43;;;19.30;99.90;;;;;;5038573;28;20045;-83
2022/05/23 07:43:18;;;;;;;6.70;4.30;;;19.50;99.90;;;;;;5038645;28;20075;-85
2022/05/23 07:45:44;;;;;;;8.18;4.57;;;19.50;99.90;;;;;;5038639;28;20035;-85
2022/05/23 07:48:09;;;;;;;7.25;4.28;;;19.60;99.90;;;;;;5038030;28;20036;-84
2022/05/23 07:50:36;;;;;;;8.30;4.60;;;19.50;99.90;;;;;;5054840;28;20036;-84
2022/05/23 08:01:14;;;;;;;9.38;4.47;;;19.70;99.90;;;;;;5055281;28;20051;-84
2022/05/23 08:03:40;;;;;;;6.65;4.20;;;19.90;99.90;;;;;;5024034;28;20405;-84
2022/05/23 08:06:06;;;;;;;7.38;4.25;;;20.00;99.90;;;;;;5054635;28;20115;-85
2022/05/23 08:08:32;;;;;;;9.75;3.92;;;20.10;99.90;;;;;;5038425;28;20119;-84
2022/05/23 08:10:58;;;;;;;7.43;4.20;;;20.30;99.90;;;;;;5037742;28;20166;-84
2022/05/23 08:13:24;;;;;;;6.13;3.60;;;20.40;99.90;;;;;;5038132;28;20037;-84
2022/05/23 08:15:50;;;;;;;7.93;4.20;;;20.50;99.90;;;;;;5054546;28;20043;-85
2022/05/23 08:18:17;;;;;;;8.88;4.32;;;20.80;99.90;;;;;;5021748;28;20040;-83
2022/05/23 08:20:43;;;;;;;8.27;4.82;;;20.90;99.90;;;;;;5054560;28;20036;-85
2022/05/23 08:23:09;;;;;;;8.13;4.47;;;21.10;99.90;;;;;;5037859;28;20411;-84
2022/05/23 08:25:35;;;;;;;7.13;4.20;;;21.10;99.90;;;;;;5037854;28;20043;-84
2022/05/23 08:28:00;;;;;;;7.40;4.22;;;21.10;99.90;;;;;;5037250;28;20127;-84
2022/05/23 08:30:27;;;;;;;7.75;4.63;;;21.10;99.90;;;;;;5038012;28;20044;-84
2022/05/23 08:32:53;;;;;;;8.75;4.30;;;21.20;99.90;;;;;;5053963;28;20036;-84
2022/05/23 08:35:21;;;;;;;7.20;4.30;;;21.40;99.90;;;;;;5054596;28;20033;-84
2022/05/23 08:37:47;;;;;;;7.60;4.07;;;21.60;99.90;;;;;;5054468;28;20040;-84
2022/05/23 08:40:13;;;;;;;8.27;4.13;;;22.00;99.90;;;;;;5036822;28;20462;-84
2022/05/23 08:42:55;;;;;;;6.90;3.97;;;22.30;99.90;;;;;;5037160;28;20120;-85
2022/05/23 08:45:35;;;;;;;8.52;4.50;;;22.60;99.90;;;;;;5054230;28;20100;-84
2022/05/23 08:48:04;;;;;;;6.90;4.25;;;22.60;99.90;;;;;;5053889;28;20036;-84
2022/05/23 08:51:10;;;;;;;5.57;3.83;;;22.40;99.90;;;;;;5037554;28;20082;-84
2022/05/23 08:54:20;;;;;;;8.30;4.28;;;22.40;99.90;;;;;;5037345;28;20082;-84
2022/05/23 08:56:58;;;;;;;6.45;4.00;;;22.20;99.90;;;;;;4954918;28;20042;-84
2022/05/23 08:59:42;;;;;;;7.70;4.20;;;22.00;99.90;;;;;;4953843;28;20061;-83
2022/05/23 09:02:18;;;;;;;8.70;4.50;;;22.10;99.90;;;;;;5006780;28;20053;-83
2022/05/23 09:04:52;;;;;;;9.57;4.37;;;22.00;99.90;;;;;;5054228;28;20492;-84
2022/05/23 09:07:47;;;;;;;8.80;4.18;;;22.10;99.90;;;;;;5053630;28;20279;-83
2022/05/23 09:10:33;;;;;;;7.00;4.50;;;22.40;99.90;;;;;;5051857;28;20041;-84
2022/05/23 09:12:59;;;;;;;9.10;4.47;;;22.90;99.90;;;;;;5036048;28;20045;-83
2022/05/23 09:15:25;;;;;;;7.50;4.60;;;23.20;99.90;;;;;;5053699;28;20040;-84
2022/05/23 09:17:59;;;;;;;;;;;23.50;99.90;;;;;;5054139;28;20036;-83
2022/05/23 09:20:38;;;;;;;5.57;3.95;;;23.80;99.90;;;;;;5051504;28;19916;-83
2022/05/23 09:23:10;;;;;;;8.23;3.67;;;24.20;99.90;;;;;;5053406;28;20138;-83
2022/05/23 09:25:36;;;;;;;4.72;3.50;;;24.50;99.90;;;;;;5036905;28;20033;-85
2022/05/23 09:28:14;;;;;;;6.53;3.95;;;24.90;99.90;;;;;;5049787;28;20072;-84
2022/05/23 09:30:42;;;;;;;5.13;3.42;;;25.10;99.90;;;;;;5049927;28;20048;-83
2022/05/23 09:33:19;;;;;;;7.15;3.60;;;25.20;99.90;;;;;;5049957;28;20041;-85
2022/05/23 09:35:45;;;;;;;6.13;3.30;;;25.40;99.90;;;;;;5048699;28;20041;-83
2022/05/23 09:38:16;;;;;;;5.40;3.38;;;25.60;99.90;;;;;;5049915;28;20041;-83
2022/05/23 09:40:42;;;;;;;5.78;3.03;;;25.70;99.90;;;;;;5047997;28;20037;-84
2022/05/23 09:49:20;;;;;;;4.20;2.25;;;26.80;99.90;;;;;;5049556;28;20056;-83
2022/05/23 09:52:16;;;;;;;4.10;2.53;;;26.80;98.00;;;;;;5047242;28;20045;-84
2022/05/23 09:54:52;;;;;;;5.50;2.30;;;26.50;98.20;;;;;;5050317;28;20040;-84
2022/05/23 09:57:25;;;;;;;5.00;2.25;;;26.30;98.30;;;;;;5049795;28;20091;-83
2022/05/23 09:59:56;;;;;;;6.03;2.70;;;26.20;98.70;;;;;;5033364;28;20128;-83
2022/05/23 10:02:47;;;;;;;4.72;2.95;;;26.10;98.80;;;;;;5047661;28;20044;-84
2022/05/23 10:05:25;;;;;;;4.55;2.42;;;26.00;98.90;;;;;;5049680;28;20115;-83
2022/05/23 10:07:54;;;;;;;6.88;2.40;;;25.90;98.40;;;;;;5049801;28;20033;-84
2022/05/23 10:10:28;;;;;;;7.28;2.33;;;25.90;98.40;;;;;;5049707;28;20048;-84
2022/05/23 10:13:12;;;;;;;5.95;2.40;;;25.90;98.30;;;;;;5033177;28;20041;-84
2022/05/23 10:15:43;;;;;;;4.10;2.33;;;25.60;98.50;;;;;;5049920;28;20444;-84
2022/05/23 10:18:16;;;;;;;3.92;2.25;;;25.50;98.90;;;;;;5033014;28;20083;-83
2022/05/23 10:20:43;;;;;;;7.40;2.42;;;25.30;98.80;;;;;;5049744;28;20041;-84
2022/05/23 10:23:21;;;;;;;6.25;2.67;;;25.40;99.10;;;;;;5049162;28;20044;-84
2022/05/23 10:25:55;;;;;;;5.25;2.15;;;25.40;98.50;;;;;;5033103;28;20068;-84
2022/05/23 10:28:36;;;;;;;4.18;1.90;;;25.30;98.60;;;;;;5049469;28;20053;-84
2022/05/23 10:31:29;;;;;;;4.20;1.90;;;25.20;98.60;;;;;;5032602;28;20037;-83
2022/05/23 10:34:39;;;;;;;3.70;1.88;;;25.40;98.70;;;;;;5049162;28;20087;-84
2022/05/23 10:37:32;;;;;;;4.47;1.83;;;25.80;99.10;;;;;;5048003;28;20054;-83
2022/05/23 10:42:53;;;;;;;4.15;1.80;;;26.10;98.30;;;;;;5048446;28;20102;-83
2022/05/23 10:45:36;;;;;;;5.25;2.42;;;26.30;98.70;;;;;;5048346;28;20421;-84
2022/05/23 10:48:44;;;;;;;4.70;2.03;;;26.40;98.20;;;;;;5049384;28;20037;-84
2022/05/23 10:51:14;;;;;;;4.25;1.70;;;26.60;97.80;;;;;;5047719;28;20094;-84
2022/05/23 10:54:18;;;;;;;5.82;1.95;;;26.90;97.90;;;;;;5049164;28;20144;-84
2022/05/23 10:57:05;;;;;;;6.55;2.20;;;27.10;97.70;;;;;;5031630;28;20045;-84
2022/05/23 10:59:36;;;;;;;;;;;27.30;96.80;;;;;;5049811;28;20041;-84
2022/05/23 11:02:29;;;;;;;4.00;2.08;;;27.50;97.20;;;;;;5033029;28;19928;-85
2022/05/23 11:05:07;;;;;;;4.03;1.80;;;27.60;97.20;;;;;;5033489;28;20048;-84
2022/05/23 11:07:44;;;;;;;5.55;2.10;;;27.80;97.10;;;;;;5053634;28;20033;-84
2022/05/23 11:10:49;;;;;;;4.50;1.98;;;27.80;96.50;;;;;;5053382;28;20493;-84
2022/05/23 11:13:33;;;;;;;5.85;1.80;;;27.90;96.00;;;;;;5052519;28;20041;-83
2022/05/23 11:16:12;;;;;;;3.88;1.80;;;28.20;96.30;;;;;;5053490;28;20032;-84
2022/05/23 11:18:42;;;;;;;3.08;1.92;;;28.50;95.50;;;;;;5053445;28;20041;-84
2022/05/23 11:21:15;;;;;;;3.05;1.60;;;28.50;95.10;;;;;;5053054;28;20048;-83
2022/05/23 11:24:10;;;;;;;4.65;2.05;;;28.40;94.60;;;;;;5036409;28;20047;-83
2022/05/23 11:26:42;;;;;;;3.13;1.90;;;28.50;94.50;;;;;;5049044;28;20056;-84
2022/05/23 11:34:46;;;;;;;4.60;2.03;;;28.60;94.30;;;;;;5052948;28;20045;-83
2022/05/23 11:37:45;;;;;;;2.38;1.30;;;28.60;94.30;;;;;;5036046;28;20032;-83
2022/05/23 11:40:26;;;;;;;2.92;1.30;;;28.90;93.20;;;;;;5052702;28;20044;-84
2022/05/23 11:42:58;;;;;;;3.78;1.25;;;29.30;93.30;;;;;;5052791;28;20068;-83
2022/05/23 11:48:40;;;;;;;2.55;1.30;;;29.60;92.20;;;;;;5052134;28;20099;-83
2022/05/23 11:51:11;;;;;;;3.28;1.30;;;29.70;91.50;;;;;;5052457;28;20504;-83
2022/05/23 11:53:43;;;;;;;3.47;1.40;;;29.60;91.90;;;;;;5052090;28;20143;-83
2022/05/23 11:56:30;;;;;;;3.85;1.27;;;29.20;91.70;;;;;;5052196;28;20062;-83
2022/05/23 11:58:56;;;;;;;;;;;29.10;92.10;;;;;;5052556;28;20124;-83
2022/05/23 12:01:26;;;;;;;3.75;1.50;;;28.90;92.30;;;;;;5052371;28;19939;-83
2022/05/23 12:03:55;;;;;;;2.75;1.40;;;29.20;91.50;;;;;;5035595;28;20489;-83
2022/05/23 12:06:24;;;;;;;4.88;1.40;;;29.10;91.90;;;;;;5051843;28;20029;-84
2022/05/23 12:08:59;;;;;;;3.70;1.40;;;29.00;92.00;;;;;;5052112;28;20090;-83
2022/05/23 12:11:27;;;;;;;2.15;1.20;;;28.80;92.40;;;;;;5035245;28;20033;-83
2022/05/23 12:13:58;;;;;;;4.95;1.13;;;28.80;92.20;;;;;;5052166;28;20414;-83
2022/05/23 12:16:30;;;;;;;2.80;1.42;;;28.80;91.70;;;;;;5052184;28;20538;-83
2022/05/23 12:19:18;;;;;;;4.50;1.55;;;28.90;91.70;;;;;;5051866;28;20175;-84
2022/05/23 12:21:46;;;;;;;2.92;1.30;;;29.30;91.50;;;;;;5035225;28;20147;-83
2022/05/23 12:24:26;;;;;;;3.30;1.35;;;29.40;91.00;;;;;;5051608;28;20033;-83
2022/05/23 12:26:54;;;;;;;2.67;1.13;;;29.40;91.20;;;;;;5051646;28;20040;-83
2022/05/23 12:29:25;;;;;;;2.70;1.20;;;29.20;90.70;;;;;;5050998;28;20504;-83
2022/05/23 12:32:17;;;;;;;4.38;1.33;;;28.90;91.10;;;;;;5051235;28;20120;-83
2022/05/23 12:34:46;;;;;;;3.00;1.30;;;28.70;91.00;;;;;;5050117;28;20032;-83
2022/05/23 12:37:38;;;;;;;2.80;1.23;;;28.60;91.10;;;;;;5034332;28;20041;-84
2022/05/23 12:40:46;;;;;;;3.90;1.50;;;28.30;91.00;;;;;;5051352;28;20069;-83
2022/05/23 12:43:36;;;;;;;3.08;1.40;;;28.10;91.20;;;;;;5003018;28;20045;-83
2022/05/23 12:46:05;;;;;;;2.75;1.25;;;27.90;91.30;;;;;;5051205;28;20127;-83
2022/05/23 12:49:15;;;;;;;3.75;1.30;;;27.70;91.30;;;;;;5050917;28;20044;-83
2022/05/23 12:52:20;;;;;;;2.78;1.30;;;27.70;91.60;;;;;;5010336;28;20374;-83
2022/05/23 12:55:10;;;;;;;4.45;1.55;;;27.50;92.10;;;;;;5051207;28;20041;-82
2022/05/23 12:58:02;;;;;;;2.20;1.40;;;27.50;92.00;;;;;;5051499;28;20459;-83
2022/05/23 13:00:53;;;;;;;2.47;1.25;;;27.50;92.10;;;;;;5051420;28;20044;-83
2022/05/23 13:03:30;;;;;;;5.10;1.75;;;27.50;92.00;;;;;;5050836;28;20051;-84
2022/05/23 13:05:59;;;;;;;3.33;1.70;;;27.40;92.10;;;;;;5050913;28;20041;-83
2022/05/23 13:08:33;;;;;;;2.38;1.50;;;27.60;91.90;;;;;;5050920;28;20037;-84
2022/05/23 13:11:11;;;;;;;4.03;1.73;;;27.50;92.00;;;;;;5034364;28;20045;-84
2022/05/23 13:13:44;;;;;;;2.95;1.75;;;27.60;91.90;;;;;;5050935;28;20128;-83
2022/05/23 13:16:25;;;;;;;3.97;1.95;;;27.50;92.20;;;;;;5051404;28;20566;-83
2022/05/23 13:27:10;;;;;;;2.50;1.60;;;27.20;93.00;;;;;;5048276;28;20135;-83
2022/05/23 13:29:36;;;;;;;5.18;2.35;;;27.00;93.20;;;;;;5050175;28;20053;-83
2022/05/23 13:32:07;;;;;;;2.90;1.60;;;27.00;93.60;;;;;;5050708;28;20520;-83
2022/05/23 13:34:39;;;;;;;3.20;1.65;;;27.00;93.60;;;;;;5050415;28;20044;-83
2022/05/23 13:37:06;;;;;;;2.80;1.50;;;27.10;93.80;;;;;;5029538;28;20041;-84
2022/05/23 13:39:41;;;;;;;4.28;1.65;;;27.10;93.90;;;;;;5050012;28;20037;-84
2022/05/23 13:42:28;;;;;;;3.60;1.75;;;27.20;93.60;;;;;;5048929;28;20489;-84
2022/05/23 13:45:08;;;;;;;4.57;1.77;;;27.10;93.00;;;;;;5049958;28;20116;-84
2022/05/23 13:47:34;;;;;;;5.85;1.30;;;26.90;92.90;;;;;;5049723;28;20033;-83
2022/05/23 13:50:09;;;;;;;4.20;1.80;;;26.80;92.90;;;;;;5049981;28;20072;-83
2022/05/23 13:52:57;;;;;;;2.90;1.70;;;26.90;92.40;;;;;;5050294;28;20468;-83
2022/05/23 13:55:32;;;;;;;5.15;1.60;;;26.80;92.50;;;;;;5050221;28;20516;-84
2022/05/23 13:58:08;;;;;;;5.53;1.88;;;26.70;93.20;;;;;;5050173;28;20057;-83
2022/05/23 14:00:46;;;;;;;5.22;2.10;;;26.70;94.30;;;;;;5050041;28;20033;-83
2022/05/23 14:03:22;;;;;;;5.72;2.00;;;26.60;95.80;;;;;;5033230;28;20037;-83
2022/05/23 14:05:51;;;;;;;5.37;2.00;;;26.50;96.20;;;;;;5033317;28;20032;-83
2022/05/23 14:08:33;;;;;;;4.30;2.10;;;26.50;96.00;;;;;;5049385;28;20055;-84
2022/05/23 14:11:06;;;;;;;4.00;1.88;;;26.50;96.30;;;;;;5048851;28;20080;-84
2022/05/23 14:13:33;;;;;;;3.15;2.00;;;26.50;96.00;;;;;;5049406;28;20135;-83
2022/05/23 14:16:00;;;;;;;4.60;1.75;;;26.50;96.30;;;;;;5049571;28;20091;-83
2022/05/23 14:18:32;;;;;;;4.90;1.85;;;26.50;96.40;;;;;;5016473;28;20041;-83
2022/05/23 14:20:58;;;;;;;2.58;1.95;;;26.50;98.00;;;;;;5049625;28;20044;-84
2022/05/23 14:23:29;;;;;;;3.70;1.83;;;26.50;97.20;;;;;;5032985;28;20065;-83